Time;durP1;ratioP1;P1;durP2;ratioP2;P2;SDS_P1;SDS_P2;PMS_P1;PMS_P2;Temp;Humidity;BMP_temperature;BMP_pressure;BME280_temperature;BME280_humidity;BME280_pressure;Samples;Min_cycle;Max_cycle;Signal;HPM_P1;HPM_P2
2022/01/14 00:01:16;;;;;;;33.05;13.38;;;10.90;83.40;;;;;;5016487;28;20479;-58
2022/01/14 00:03:42;;;;;;;31.88;13.55;;;10.90;83.60;;;;;;5015664;28;20026;-59
2022/01/14 00:06:08;;;;;;;30.52;14.02;;;10.90;83.60;;;;;;5016409;28;20104;-59
2022/01/14 00:08:34;;;;;;;24.23;12.90;;;10.80;83.10;;;;;;5016166;28;20026;-58
2022/01/14 00:11:00;;;;;;;35.78;14.60;;;10.80;83.20;;;;;;5015917;28;20041;-60
2022/01/14 00:13:44;;;;;;;32.40;14.82;;;10.70;83.40;;;;;;5016137;28;20402;-71
2022/01/14 00:16:10;;;;;;;28.80;14.40;;;10.80;83.50;;;;;;5015492;28;20021;-71
2022/01/14 00:18:35;;;;;;;33.45;14.15;;;10.80;83.40;;;;;;5015816;28;20030;-60
2022/01/14 00:21:01;;;;;;;30.48;14.57;;;10.80;83.60;;;;;;5015793;28;20478;-60
2022/01/14 00:23:32;;;;;;;34.28;13.43;;;10.70;83.60;;;;;;5015954;28;20029;-60
2022/01/14 00:31:43;;;;;;;33.10;12.70;;;10.60;83.70;;;;;;5015669;28;20033;-64
2022/01/14 00:34:11;;;;;;;22.52;13.32;;;10.60;83.80;;;;;;5015578;28;20021;-60
2022/01/14 00:36:37;;;;;;;33.25;13.85;;;10.60;83.70;;;;;;5015339;28;20530;-60
2022/01/14 00:39:04;;;;;;;31.50;14.25;;;10.50;83.80;;;;;;5014641;28;20058;-59
2022/01/14 00:41:29;;;;;;;27.90;14.93;;;10.50;83.80;;;;;;5015220;28;20037;-60
2022/01/14 00:44:01;;;;;;;23.52;14.32;;;10.60;83.80;;;;;;5015434;28;20030;-59
2022/01/14 00:46:27;;;;;;;33.97;14.13;;;10.60;83.90;;;;;;5015224;28;20044;-59
2022/01/14 00:48:53;;;;;;;27.80;13.85;;;10.60;83.50;;;;;;5015399;28;20022;-59
2022/01/14 00:51:18;;;;;;;45.53;14.52;;;10.60;83.40;;;;;;5015347;28;20040;-60
2022/01/14 00:53:44;;;;;;;23.77;14.10;;;10.60;83.20;;;;;;5015065;28;20018;-65
2022/01/14 01:01:37;;;;;;;23.90;12.85;;;10.50;83.20;;;;;;5015037;28;20045;-60
2022/01/14 01:04:03;;;;;;;28.23;15.10;;;10.50;83.10;;;;;;5015051;28;20479;-70
2022/01/14 01:06:28;;;;;;;27.92;15.02;;;10.50;83.50;;;;;;5014287;28;20057;-63
2022/01/14 01:08:56;;;;;;;29.85;15.95;;;10.40;83.60;;;;;;5016949;28;20025;-60
2022/01/14 01:11:28;;;;;;;28.55;15.82;;;10.40;83.90;;;;;;5013628;28;20082;-61
2022/01/14 01:14:03;;;;;;;26.60;15.35;;;10.40;83.80;;;;;;5013877;28;20030;-59
2022/01/14 01:16:29;;;;;;;32.30;14.90;;;10.40;83.70;;;;;;5014513;28;20113;-65
2022/01/14 01:18:54;;;;;;;21.85;15.57;;;10.30;83.30;;;;;;5014621;28;20113;-60
2022/01/14 01:21:20;;;;;;;31.40;14.82;;;10.30;83.40;;;;;;5014691;28;20061;-59
2022/01/14 01:23:45;;;;;;;17.48;13.25;;;10.40;83.30;;;;;;5014640;28;20080;-67
2022/01/14 01:26:21;;;;;;;31.27;15.15;;;10.30;83.20;;;;;;5014793;28;20034;-60
2022/01/14 01:29:00;;;;;;;22.08;14.27;;;10.30;83.20;;;;;;5014368;28;20025;-59
2022/01/14 01:31:35;;;;;;;20.45;13.50;;;10.30;82.70;;;;;;5014434;28;20026;-59
2022/01/14 01:34:21;;;;;;;23.10;14.38;;;10.20;82.70;;;;;;5014630;28;20463;-60
2022/01/14 01:36:49;;;;;;;15.52;12.07;;;10.20;82.30;;;;;;5014109;28;20037;-60
2022/01/14 01:39:18;;;;;;;19.45;13.32;;;10.30;81.80;;;;;;5014416;28;20038;-59
2022/01/14 01:41:47;;;;;;;19.52;13.27;;;10.30;81.80;;;;;;5014083;28;20018;-62
2022/01/14 01:44:14;;;;;;;19.38;13.90;;;10.30;81.60;;;;;;5014225;28;20030;-60
2022/01/14 01:46:43;;;;;;;21.20;12.73;;;10.20;81.30;;;;;;5014033;28;20018;-65
2022/01/14 01:49:09;;;;;;;15.73;13.00;;;10.20;81.30;;;;;;5014181;28;20033;-58
2022/01/14 01:51:36;;;;;;;18.52;13.75;;;10.20;81.00;;;;;;5014187;28;20533;-59
2022/01/14 01:54:02;;;;;;;16.30;13.65;;;10.10;81.50;;;;;;5014132;28;20026;-57
2022/01/14 01:56:28;;;;;;;14.77;11.98;;;10.20;80.80;;;;;;5014044;28;20173;-58
2022/01/14 01:58:56;;;;;;;15.93;12.20;;;10.20;80.40;;;;;;5013833;28;20449;-58
2022/01/14 02:01:23;;;;;;;17.73;12.90;;;10.20;80.20;;;;;;5013921;28;20040;-59
2022/01/14 02:03:49;;;;;;;15.98;13.15;;;10.20;81.00;;;;;;5014116;28;20097;-60
2022/01/14 02:06:16;;;;;;;16.05;13.27;;;10.10;80.50;;;;;;5013958;28;20103;-58
2022/01/14 02:08:42;;;;;;;19.05;11.93;;;10.10;80.20;;;;;;5013630;28;20026;-58
2022/01/14 02:11:07;;;;;;;13.55;11.63;;;10.10;80.30;;;;;;5013871;28;20041;-58
2022/01/14 02:13:33;;;;;;;13.68;11.48;;;10.10;80.90;;;;;;5013478;28;20028;-58
2022/01/14 02:18:48;;;;;;;12.10;10.23;;;10.00;79.80;;;;;;5013532;28;20398;-58
2022/01/14 02:24:21;;;;;;;12.15;10.63;;;10.10;79.70;;;;;;5013957;28;20060;-60
2022/01/14 02:26:52;;;;;;;11.07;9.77;;;10.00;79.40;;;;;;5013413;28;20038;-59
2022/01/14 02:29:21;;;;;;;11.70;10.15;;;9.90;79.30;;;;;;5013896;28;20145;-66
2022/01/14 02:31:47;;;;;;;11.85;9.63;;;9.90;79.40;;;;;;5013257;28;20081;-58
2022/01/14 02:34:15;;;;;;;10.65;9.32;;;9.90;79.30;;;;;;5013657;28;20021;-59
2022/01/14 02:36:43;;;;;;;10.10;8.68;;;9.90;78.80;;;;;;5013469;28;20026;-59
2022/01/14 02:39:11;;;;;;;12.23;9.90;;;9.80;78.70;;;;;;5013345;28;20513;-58
2022/01/14 02:41:39;;;;;;;11.23;9.15;;;9.80;78.70;;;;;;4995570;28;20383;-68
2022/01/14 02:44:06;;;;;;;9.93;8.93;;;9.70;78.80;;;;;;5013138;28;20026;-73
2022/01/14 02:46:39;;;;;;;10.27;9.18;;;9.70;79.00;;;;;;5013575;28;20022;-59
2022/01/14 02:49:05;;;;;;;11.23;9.52;;;9.70;78.80;;;;;;5013163;28;20536;-62
2022/01/14 02:51:31;;;;;;;11.85;9.10;;;9.70;78.70;;;;;;5013384;28;20022;-58
2022/01/14 02:54:10;;;;;;;9.65;8.27;;;9.60;78.90;;;;;;5013204;28;20022;-59
2022/01/14 02:56:37;;;;;;;12.60;9.90;;;9.70;79.00;;;;;;5013113;28;20018;-58
2022/01/14 02:59:03;;;;;;;12.73;9.95;;;9.70;78.90;;;;;;5013116;28;20049;-59
2022/01/14 03:01:30;;;;;;;12.00;9.93;;;9.70;78.80;;;;;;5015288;28;20518;-58
2022/01/14 03:03:57;;;;;;;13.27;10.82;;;9.60;79.20;;;;;;5017321;28;20021;-58
2022/01/14 03:06:25;;;;;;;12.75;10.40;;;9.60;79.20;;;;;;5017226;28;20026;-60
2022/01/14 03:08:50;;;;;;;12.48;10.18;;;9.60;79.10;;;;;;5017176;28;20018;-59
2022/01/14 03:11:28;;;;;;;12.07;10.10;;;9.50;79.20;;;;;;5016732;28;20037;-61
2022/01/14 03:13:54;;;;;;;13.20;10.32;;;9.50;79.20;;;;;;5017105;28;20050;-59
2022/01/14 03:16:21;;;;;;;12.30;10.98;;;9.50;79.30;;;;;;5017091;28;20065;-59
2022/01/14 03:18:50;;;;;;;13.45;10.73;;;9.60;79.60;;;;;;5016960;28;20486;-59
2022/01/14 03:21:25;;;;;;;13.32;11.55;;;9.50;79.70;;;;;;5017086;28;20494;-59
2022/01/14 03:24:02;;;;;;;15.80;11.02;;;9.50;80.00;;;;;;5016716;28;20076;-59
2022/01/14 03:26:28;;;;;;;17.63;12.63;;;9.40;80.10;;;;;;5016643;28;20021;-59
2022/01/14 03:28:53;;;;;;;17.33;11.65;;;9.50;80.30;;;;;;5016738;28;20026;-58
2022/01/14 03:31:19;;;;;;;19.35;13.35;;;9.50;80.50;;;;;;5017092;28;20034;-60
2022/01/14 03:33:44;;;;;;;22.75;13.23;;;9.50;80.90;;;;;;5016552;28;20030;-58
2022/01/14 03:36:10;;;;;;;28.20;14.88;;;9.50;80.90;;;;;;5016758;28;20108;-58
2022/01/14 03:38:36;;;;;;;24.15;14.10;;;9.50;81.10;;;;;;5016873;28;20033;-58
2022/01/14 03:41:02;;;;;;;25.75;13.90;;;9.50;81.50;;;;;;5016343;28;20099;-60
2022/01/14 03:43:28;;;;;;;25.67;14.93;;;9.40;81.80;;;;;;5016223;28;20026;-60
2022/01/14 03:45:53;;;;;;;30.48;15.10;;;9.40;82.10;;;;;;5016619;28;20075;-60
2022/01/14 03:48:19;;;;;;;30.80;15.57;;;9.40;82.10;;;;;;5016633;28;20030;-60
2022/01/14 03:50:45;;;;;;;27.70;15.77;;;9.40;82.40;;;;;;5016470;28;20029;-60
2022/01/14 03:53:12;;;;;;;29.45;15.25;;;9.40;82.50;;;;;;5016477;28;20623;-59
2022/01/14 03:55:39;;;;;;;26.83;14.93;;;9.30;82.50;;;;;;5016252;28;20471;-60
2022/01/14 03:58:06;;;;;;;24.30;15.00;;;9.30;83.00;;;;;;5016454;28;20033;-57
2022/01/14 04:00:32;;;;;;;24.38;14.15;;;9.30;83.30;;;;;;5016253;28;20031;-59
2022/01/14 04:02:57;;;;;;;28.10;15.75;;;9.30;83.50;;;;;;5016244;28;20106;-60
2022/01/14 04:05:23;;;;;;;30.05;15.30;;;9.30;83.60;;;;;;5016214;28;20378;-58
2022/01/14 04:07:49;;;;;;;20.98;15.40;;;9.30;83.60;;;;;;5016323;28;20057;-73
2022/01/14 04:10:14;;;;;;;24.80;14.77;;;9.30;83.80;;;;;;5015895;28;20081;-57
2022/01/14 04:12:48;;;;;;;24.92;15.30;;;9.30;83.90;;;;;;5015736;28;20490;-62
2022/01/14 04:17:59;;;;;;;21.52;15.65;;;9.30;84.30;;;;;;5016114;28;20084;-70
2022/01/14 04:20:25;;;;;;;21.27;15.98;;;9.20;84.40;;;;;;5015972;28;20457;-59
2022/01/14 04:22:51;;;;;;;22.38;15.88;;;9.30;84.60;;;;;;4998107;28;20022;-73
2022/01/14 04:25:17;;;;;;;25.80;15.20;;;9.20;84.70;;;;;;5015684;28;20529;-60
2022/01/14 04:27:42;;;;;;;26.35;14.95;;;9.20;85.00;;;;;;5015759;28;20044;-58
2022/01/14 04:30:09;;;;;;;25.42;15.02;;;9.20;84.10;;;;;;5015782;28;20088;-58
2022/01/14 04:32:35;;;;;;;21.02;13.93;;;9.30;83.90;;;;;;5015768;28;20022;-61
2022/01/14 04:35:00;;;;;;;18.52;14.32;;;9.30;83.60;;;;;;5015550;28;20109;-73
2022/01/14 04:37:26;;;;;;;24.15;14.85;;;9.30;83.70;;;;;;5015468;28;20046;-65
2022/01/14 04:39:52;;;;;;;16.83;14.00;;;9.30;83.60;;;;;;4997863;28;20044;-66
2022/01/14 04:42:17;;;;;;;17.98;13.98;;;9.30;83.90;;;;;;5015313;28;20500;-59
2022/01/14 04:44:43;;;;;;;22.30;14.55;;;9.30;84.00;;;;;;5015442;28;20030;-69
2022/01/14 04:47:30;;;;;;;18.92;14.13;;;9.30;84.00;;;;;;5015412;28;20499;-60
2022/01/14 04:49:55;;;;;;;25.10;13.80;;;9.20;84.20;;;;;;5015427;28;20108;-62
2022/01/14 04:52:22;;;;;;;23.80;13.82;;;9.20;83.90;;;;;;5015014;28;20104;-62
2022/01/14 04:54:47;;;;;;;26.20;14.15;;;9.20;84.00;;;;;;5015268;28;20033;-62
2022/01/14 04:57:16;;;;;;;19.30;13.80;;;9.20;84.10;;;;;;5015457;28;20030;-71
2022/01/14 04:59:44;;;;;;;22.00;13.82;;;9.10;84.00;;;;;;5015153;28;20037;-58
2022/01/14 05:02:10;;;;;;;23.77;13.82;;;9.10;84.00;;;;;;5014839;28;20394;-57
2022/01/14 05:04:35;;;;;;;18.95;13.60;;;9.10;84.20;;;;;;5015175;28;20022;-67
2022/01/14 05:07:03;;;;;;;21.48;13.18;;;9.10;84.40;;;;;;5014725;28;20060;-61
2022/01/14 05:09:38;;;;;;;18.75;12.70;;;9.10;84.30;;;;;;5015166;28;20065;-66
2022/01/14 05:12:09;;;;;;;23.70;14.38;;;9.10;84.00;;;;;;5014517;28;20030;-58
2022/01/14 05:14:35;;;;;;;23.20;13.85;;;9.10;84.30;;;;;;5015297;28;20061;-62
2022/01/14 05:17:01;;;;;;;21.15;13.18;;;9.00;84.40;;;;;;5014938;28;20049;-58
2022/01/14 05:19:27;;;;;;;16.65;14.07;;;9.00;84.50;;;;;;5014882;28;20064;-58
2022/01/14 05:21:53;;;;;;;17.35;12.63;;;9.10;84.70;;;;;;5014480;28;20485;-57
2022/01/14 05:24:18;;;;;;;22.23;12.90;;;9.00;84.70;;;;;;5014129;28;20022;-59
2022/01/14 05:26:44;;;;;;;25.27;13.13;;;9.00;84.70;;;;;;5014624;28;20036;-66
2022/01/14 05:29:09;;;;;;;20.33;12.32;;;9.10;84.70;;;;;;5014834;28;20085;-74
2022/01/14 05:31:45;;;;;;;19.92;13.50;;;9.00;84.80;;;;;;5014471;28;20030;-61
2022/01/14 05:34:10;;;;;;;20.05;12.20;;;9.10;84.90;;;;;;5014433;28;20043;-76
2022/01/14 05:36:36;;;;;;;22.33;13.38;;;9.00;85.00;;;;;;5014196;28;20463;-74
2022/01/14 05:39:02;;;;;;;27.15;13.20;;;9.00;85.00;;;;;;5014578;28;20030;-76
2022/01/14 05:41:28;;;;;;;25.67;13.23;;;9.10;84.80;;;;;;5014133;28;20057;-77
2022/01/14 05:43:53;;;;;;;23.20;13.32;;;9.00;85.20;;;;;;5014288;28;20064;-70
2022/01/14 05:46:19;;;;;;;26.00;13.77;;;9.00;85.30;;;;;;5014253;28;20122;-77
2022/01/14 05:48:44;;;;;;;17.10;12.45;;;9.00;85.20;;;;;;5014776;28;20101;-60
2022/01/14 05:51:10;;;;;;;23.98;12.48;;;9.00;85.20;;;;;;5013804;28;20109;-60
2022/01/14 05:53:35;;;;;;;24.48;12.98;;;8.90;85.10;;;;;;5014263;28;20038;-66
2022/01/14 05:56:01;;;;;;;22.88;13.27;;;8.90;85.00;;;;;;5014276;28;20026;-60
2022/01/14 05:58:27;;;;;;;23.58;12.95;;;8.90;84.90;;;;;;5013802;28;20030;-60
2022/01/14 06:00:52;;;;;;;30.35;13.57;;;8.90;84.80;;;;;;5019334;28;20033;-60
2022/01/14 06:03:18;;;;;;;20.17;12.95;;;8.90;84.80;;;;;;5033609;28;20082;-60
2022/01/14 06:05:43;;;;;;;20.02;12.25;;;8.80;84.70;;;;;;5032659;28;20023;-59
2022/01/14 06:08:09;;;;;;;24.42;13.00;;;8.80;84.80;;;;;;5033283;28;20115;-59
2022/01/14 06:10:35;;;;;;;19.75;13.10;;;8.90;84.60;;;;;;5033685;28;20381;-60
2022/01/14 06:13:01;;;;;;;19.02;13.07;;;8.80;85.00;;;;;;5033335;28;20037;-60
2022/01/14 06:15:26;;;;;;;20.73;12.30;;;8.80;84.80;;;;;;5033569;28;20360;-63
2022/01/14 06:17:52;;;;;;;17.88;13.20;;;8.80;84.80;;;;;;5033328;28;20048;-60
2022/01/14 06:20:17;;;;;;;25.35;13.88;;;8.70;84.70;;;;;;5033169;28;20084;-60
2022/01/14 06:22:43;;;;;;;17.75;12.90;;;8.70;84.60;;;;;;5033361;28;20488;-61
2022/01/14 06:25:09;;;;;;;15.93;13.15;;;8.70;84.70;;;;;;5033474;28;20056;-61
2022/01/14 06:27:34;;;;;;;23.70;13.63;;;8.70;84.80;;;;;;5033622;28;20018;-60
2022/01/14 06:30:01;;;;;;;15.85;13.70;;;8.70;84.60;;;;;;5033505;28;20029;-69
2022/01/14 06:32:26;;;;;;;23.30;13.20;;;8.70;84.80;;;;;;5033188;28;20025;-60
2022/01/14 06:34:52;;;;;;;15.63;12.93;;;8.70;84.70;;;;;;5032647;28;20534;-60
2022/01/14 06:37:17;;;;;;;20.70;13.77;;;8.70;84.80;;;;;;5032725;28;20030;-61
2022/01/14 06:39:43;;;;;;;17.83;13.88;;;8.80;84.70;;;;;;5019750;28;20402;-60
2022/01/14 06:42:09;;;;;;;16.00;13.23;;;8.80;84.60;;;;;;5018227;28;20711;-60
2022/01/14 06:44:35;;;;;;;49.33;17.13;;;8.70;84.80;;;;;;5019878;28;20155;-59
2022/01/14 06:47:00;;;;;;;21.15;13.80;;;8.60;85.70;;;;;;5024867;28;20025;-61
2022/01/14 06:49:27;;;;;;;16.33;13.80;;;8.60;85.80;;;;;;5018888;28;20088;-60
2022/01/14 06:51:53;;;;;;;25.75;14.32;;;8.50;86.40;;;;;;5027324;28;20036;-59
2022/01/14 06:54:19;;;;;;;18.15;13.13;;;8.60;86.50;;;;;;5023672;28;20025;-71
2022/01/14 06:56:44;;;;;;;23.63;14.20;;;8.60;86.50;;;;;;5025418;28;20040;-77
2022/01/14 06:59:10;;;;;;;18.80;13.98;;;8.70;86.20;;;;;;5020619;28;20026;-69
2022/01/14 07:01:36;;;;;;;16.70;14.13;;;8.80;86.00;;;;;;5025575;28;20033;-60
2022/01/14 07:04:01;;;;;;;19.50;12.70;;;8.70;85.90;;;;;;5030299;28;20025;-73
2022/01/14 07:06:27;;;;;;;15.63;13.82;;;8.70;86.00;;;;;;5028409;28;20025;-59
2022/01/14 07:08:52;;;;;;;20.98;13.90;;;8.80;85.50;;;;;;4999046;28;20471;-70
2022/01/14 07:11:18;;;;;;;16.15;13.63;;;8.80;85.60;;;;;;5020035;28;20060;-66
2022/01/14 07:13:44;;;;;;;18.92;14.20;;;8.80;86.10;;;;;;5020628;28;20087;-60
2022/01/14 07:16:09;;;;;;;15.30;13.70;;;8.80;86.00;;;;;;5016838;28;20022;-62
2022/01/14 07:18:35;;;;;;;17.10;14.45;;;8.80;85.00;;;;;;5018483;28;20030;-66
2022/01/14 07:21:01;;;;;;;14.57;11.25;;;8.80;85.10;;;;;;5011815;28;20113;-72
2022/01/14 07:23:26;;;;;;;18.75;13.75;;;9.00;86.50;;;;;;5012130;28;20022;-62
2022/01/14 07:25:52;;;;;;;14.88;13.38;;;9.10;86.00;;;;;;5020208;28;20475;-59
2022/01/14 07:28:19;;;;;;;18.10;14.23;;;9.20;84.00;;;;;;5016292;28;20022;-63
2022/01/14 07:30:45;;;;;;;16.02;14.02;;;9.00;83.90;;;;;;5007789;28;20029;-67
2022/01/14 07:33:11;;;;;;;18.45;14.25;;;8.80;84.30;;;;;;5018326;28;20691;-70
2022/01/14 07:35:39;;;;;;;20.00;14.88;;;8.80;84.70;;;;;;5022681;28;20026;-70
2022/01/14 07:38:05;;;;;;;21.58;14.65;;;8.70;84.90;;;;;;5033342;28;20036;-71
2022/01/14 07:40:31;;;;;;;22.75;15.30;;;8.60;85.30;;;;;;5030984;28;20034;-72
2022/01/14 07:42:56;;;;;;;17.60;15.20;;;8.80;84.80;;;;;;5036038;28;20091;-59
2022/01/14 07:45:22;;;;;;;28.02;20.00;;;8.80;84.70;;;;;;5032480;28;20032;-68
2022/01/14 07:47:47;;;;;;;25.65;18.73;;;8.80;84.70;;;;;;5017426;28;20025;-72
2022/01/14 07:50:13;;;;;;;26.92;19.65;;;8.80;84.70;;;;;;5033171;28;20031;-64
2022/01/14 07:52:39;;;;;;;24.33;18.63;;;8.90;84.50;;;;;;5035806;28;20025;-60
2022/01/14 07:55:05;;;;;;;25.38;18.98;;;8.80;84.00;;;;;;5018488;28;20490;-71
2022/01/14 07:57:32;;;;;;;19.55;16.10;;;8.70;84.90;;;;;;5026567;28;20021;-61
2022/01/14 07:59:58;;;;;;;19.95;14.88;;;8.60;85.90;;;;;;5022151;28;20069;-66
2022/01/14 08:02:25;;;;;;;16.67;14.48;;;8.60;86.00;;;;;;5034825;28;20022;-69
2022/01/14 08:04:51;;;;;;;17.98;14.75;;;8.60;85.90;;;;;;5029736;28;20104;-63
2022/01/14 08:07:22;;;;;;;19.23;14.25;;;8.60;86.10;;;;;;5026790;28;20101;-58
2022/01/14 08:09:47;;;;;;;18.58;14.05;;;8.60;86.10;;;;;;5030180;28;20026;-67
2022/01/14 08:12:13;;;;;;;17.85;14.15;;;8.50;86.80;;;;;;5028327;28;20041;-61
2022/01/14 08:14:39;;;;;;;19.65;14.65;;;8.50;86.40;;;;;;5028839;28;20029;-59
2022/01/14 08:17:05;;;;;;;24.45;17.17;;;8.60;86.20;;;;;;5034764;28;20026;-60
2022/01/14 08:19:33;;;;;;;19.88;16.33;;;8.60;86.10;;;;;;5044221;28;20393;-60
2022/01/14 08:22:03;;;;;;;18.88;15.32;;;8.50;86.30;;;;;;5043573;28;20076;-59
2022/01/14 08:24:29;;;;;;;18.23;14.57;;;8.60;86.50;;;;;;5015244;28;20037;-61
2022/01/14 08:26:56;;;;;;;18.35;14.70;;;8.70;86.30;;;;;;5020698;28;20030;-61
2022/01/14 08:29:21;;;;;;;16.60;14.77;;;8.70;86.10;;;;;;5031613;28;20042;-59
2022/01/14 08:31:47;;;;;;;17.52;14.82;;;8.80;85.90;;;;;;5046127;28;20106;-60
2022/01/14 08:34:12;;;;;;;16.20;14.48;;;8.80;85.50;;;;;;5054239;28;20033;-60
2022/01/14 08:36:38;;;;;;;16.80;14.07;;;8.80;85.10;;;;;;5055522;28;20488;-59
2022/01/14 08:39:03;;;;;;;15.98;14.30;;;8.90;85.30;;;;;;5046294;28;20449;-60
2022/01/14 08:41:30;;;;;;;18.65;15.38;;;9.00;83.90;;;;;;5027946;28;20025;-59
2022/01/14 08:43:59;;;;;;;18.98;16.40;;;8.90;83.70;;;;;;5022471;28;20080;-60
2022/01/14 08:46:26;;;;;;;20.55;16.55;;;9.00;83.40;;;;;;5033942;28;20029;-62
2022/01/14 08:48:52;;;;;;;29.00;21.25;;;9.10;83.20;;;;;;5034849;28;20033;-68
2022/01/14 08:51:18;;;;;;;46.17;27.50;;;9.00;83.40;;;;;;5035165;28;20028;-59
2022/01/14 08:53:43;;;;;;;23.30;18.05;;;8.80;84.20;;;;;;5033714;28;20022;-61
2022/01/14 08:56:09;;;;;;;20.95;18.13;;;8.90;84.10;;;;;;5019294;28;20174;-71
2022/01/14 08:58:34;;;;;;;29.30;19.65;;;9.00;84.00;;;;;;5013566;28;20030;-61
2022/01/14 09:01:00;;;;;;;19.27;16.55;;;9.00;84.10;;;;;;5015090;28;20038;-67
2022/01/14 09:03:27;;;;;;;16.63;14.85;;;9.00;84.70;;;;;;5015984;28;20029;-64
2022/01/14 09:05:52;;;;;;;18.25;14.43;;;9.00;84.40;;;;;;5014910;28;20494;-61
2022/01/14 09:08:18;;;;;;;17.25;13.57;;;9.10;84.00;;;;;;5015073;28;20025;-67
2022/01/14 09:10:43;;;;;;;15.10;13.57;;;9.00;84.50;;;;;;5014209;28;20026;-60
2022/01/14 09:13:09;;;;;;;16.90;14.40;;;8.90;85.00;;;;;;5024863;28;20043;-60
2022/01/14 09:15:34;;;;;;;15.77;13.27;;;8.90;85.10;;;;;;5030893;28;20032;-60
2022/01/14 09:18:00;;;;;;;16.70;14.38;;;8.90;84.70;;;;;;5021747;28;20087;-60
2022/01/14 09:20:27;;;;;;;15.38;13.77;;;8.90;84.90;;;;;;5022790;28;20048;-60
2022/01/14 09:22:57;;;;;;;16.35;14.63;;;8.90;84.70;;;;;;5019929;28;20018;-60
2022/01/14 09:25:22;;;;;;;16.35;14.68;;;9.00;84.20;;;;;;5015741;28;20033;-64
2022/01/14 09:27:50;;;;;;;17.67;14.90;;;9.10;84.20;;;;;;5014214;28;20076;-60
2022/01/14 09:30:16;;;;;;;15.80;14.10;;;9.10;84.10;;;;;;5025600;28;20474;-59
2022/01/14 09:32:42;;;;;;;18.30;13.98;;;9.10;84.30;;;;;;5031304;28;20053;-60
2022/01/14 09:35:11;;;;;;;18.23;13.77;;;9.10;84.50;;;;;;5031594;28;20029;-60
2022/01/14 09:37:36;;;;;;;14.25;12.75;;;9.10;84.90;;;;;;5029082;28;20021;-63
2022/01/14 09:40:03;;;;;;;14.10;12.60;;;9.20;85.10;;;;;;5034161;28;20102;-61
2022/01/14 09:42:30;;;;;;;15.27;13.75;;;9.20;85.10;;;;;;5019532;28;20037;-60
2022/01/14 09:44:56;;;;;;;15.05;13.07;;;9.20;85.10;;;;;;5015258;28;20041;-62
2022/01/14 09:47:22;;;;;;;16.90;13.68;;;9.30;85.40;;;;;;5025178;28;20026;-60
2022/01/14 09:49:48;;;;;;;15.07;13.48;;;9.30;85.60;;;;;;5024203;28;20065;-63
2022/01/14 09:52:15;;;;;;;18.45;14.35;;;9.30;85.60;;;;;;5025025;28;20120;-67
2022/01/14 09:54:43;;;;;;;18.65;14.18;;;9.30;85.90;;;;;;5027583;28;20039;-70
2022/01/14 09:57:11;;;;;;;17.77;14.80;;;9.40;86.00;;;;;;5017705;28;20033;-64
2022/01/14 09:59:36;;;;;;;19.23;14.77;;;9.40;85.80;;;;;;5013092;28;20060;-59
2022/01/14 10:02:02;;;;;;;16.38;13.70;;;9.50;86.00;;;;;;5013892;28;20466;-59
2022/01/14 10:04:29;;;;;;;18.55;14.77;;;9.50;86.00;;;;;;5013619;28;20053;-67
2022/01/14 10:06:59;;;;;;;18.70;16.80;;;9.50;86.10;;;;;;5025151;28;20036;-62
2022/01/14 10:09:33;;;;;;;20.17;16.25;;;9.50;86.30;;;;;;5023903;28;20442;-61
2022/01/14 10:12:04;;;;;;;16.85;14.48;;;9.60;86.70;;;;;;5018050;28;20028;-64
2022/01/14 10:14:30;;;;;;;16.60;14.25;;;9.50;87.20;;;;;;5033507;28;20494;-59
2022/01/14 10:16:58;;;;;;;16.52;14.60;;;9.60;87.10;;;;;;5032261;28;20021;-60
2022/01/14 10:19:26;;;;;;;18.83;14.18;;;9.60;87.20;;;;;;5032556;28;20482;-60
2022/01/14 10:21:53;;;;;;;20.13;15.57;;;9.60;87.40;;;;;;5018858;28;20026;-59
2022/01/14 10:24:21;;;;;;;16.75;14.95;;;9.70;87.80;;;;;;5033381;28;20033;-59
2022/01/14 10:26:58;;;;;;;18.85;14.63;;;9.70;87.70;;;;;;5032553;28;20021;-66
2022/01/14 10:29:26;;;;;;;19.35;15.45;;;9.70;87.90;;;;;;5017830;28;20028;-60
2022/01/14 10:31:53;;;;;;;18.70;15.80;;;9.60;88.30;;;;;;5032751;28;20497;-63
2022/01/14 10:34:19;;;;;;;22.65;15.63;;;9.70;88.50;;;;;;5031982;28;20104;-59
2022/01/14 10:36:46;;;;;;;19.40;15.65;;;9.70;88.50;;;;;;5023868;28;20123;-59
2022/01/14 10:39:24;;;;;;;18.13;15.45;;;9.70;88.80;;;;;;5023874;28;20492;-59
2022/01/14 10:41:51;;;;;;;22.40;16.35;;;9.70;88.80;;;;;;5032489;28;20076;-66
2022/01/14 10:44:25;;;;;;;24.83;16.25;;;9.80;88.80;;;;;;5032814;28;20064;-59
2022/01/14 10:47:29;;;;;;;19.40;16.85;;;9.90;88.80;;;;;;5024239;28;20044;-59
2022/01/14 10:49:58;;;;;;;20.77;16.60;;;9.90;88.90;;;;;;5022745;28;20079;-60
2022/01/14 10:52:26;;;;;;;18.08;16.08;;;9.80;89.20;;;;;;5016297;28;20041;-60
2022/01/14 10:54:54;;;;;;;19.83;16.02;;;9.90;89.00;;;;;;5025756;28;20060;-60
2022/01/14 10:57:30;;;;;;;18.55;16.45;;;9.90;89.20;;;;;;5033147;28;20087;-59
2022/01/14 11:00:12;;;;;;;22.55;16.70;;;9.90;89.40;;;;;;5013092;28;20061;-67
2022/01/14 11:02:41;;;;;;;;;;;9.90;89.60;;;;;;5024182;28;20026;-66
2022/01/14 11:05:17;;;;;;;19.98;16.17;;;10.00;89.40;;;;;;5031666;28;20261;-61
2022/01/14 11:07:44;;;;;;;20.60;17.80;;;10.00;89.40;;;;;;5032568;28;20029;-59
2022/01/14 11:10:29;;;;;;;20.75;17.67;;;10.10;89.80;;;;;;5032543;28;20076;-72
2022/01/14 11:12:57;;;;;;;25.42;19.75;;;10.10;89.80;;;;;;5018148;28;20041;-59
2022/01/14 11:15:25;;;;;;;21.83;18.40;;;10.10;89.80;;;;;;5012956;28;20125;-61
2022/01/14 11:17:53;;;;;;;22.02;17.95;;;10.10;89.90;;;;;;5012814;28;20064;-60
2022/01/14 11:20:30;;;;;;;22.85;19.67;;;10.10;89.70;;;;;;5032430;28;20120;-71
2022/01/14 11:23:15;;;;;;;24.92;20.65;;;10.20;89.70;;;;;;5035338;28;20018;-59
2022/01/14 11:26:00;;;;;;;25.60;21.23;;;10.20;89.70;;;;;;5036701;28;20471;-59
2022/01/14 11:28:33;;;;;;;24.50;20.05;;;10.20;89.90;;;;;;5024745;28;20021;-59
2022/01/14 11:30:59;;;;;;;29.27;22.77;;;10.30;89.60;;;;;;5032164;28;20029;-67
2022/01/14 11:33:40;;;;;;;27.02;21.30;;;10.40;89.50;;;;;;5027016;28;20025;-60
2022/01/14 11:36:07;;;;;;;31.95;24.02;;;10.30;89.70;;;;;;5016747;28;20106;-59
2022/01/14 11:38:37;;;;;;;30.40;22.80;;;10.30;89.60;;;;;;5016632;28;20099;-62
2022/01/14 11:41:03;;;;;;;30.42;24.00;;;10.40;89.70;;;;;;5016463;28;20141;-59
2022/01/14 11:43:46;;;;;;;33.53;25.08;;;10.40;89.90;;;;;;5021215;28;20041;-65
2022/01/14 11:46:15;;;;;;;30.08;23.15;;;10.40;90.00;;;;;;5025787;28;20029;-64
2022/01/14 11:48:48;;;;;;;32.22;24.70;;;10.40;90.00;;;;;;5034116;28;20026;-62
2022/01/14 11:51:16;;;;;;;31.02;25.20;;;10.50;90.00;;;;;;5027373;28;20128;-60
2022/01/14 11:54:05;;;;;;;34.42;26.35;;;10.50;90.00;;;;;;5031787;28;20048;-59
2022/01/14 11:56:31;;;;;;;32.53;25.45;;;10.50;90.10;;;;;;5034211;28;20064;-59
2022/01/14 11:59:18;;;;;;;30.85;24.05;;;10.60;90.00;;;;;;5035659;28;20028;-65
2022/01/14 12:01:49;;;;;;;32.22;23.75;;;10.60;90.00;;;;;;5035185;28;20087;-68
2022/01/14 12:04:15;;;;;;;34.63;24.40;;;10.60;90.00;;;;;;5025583;28;20469;-59
2022/01/14 12:06:49;;;;;;;32.00;24.92;;;10.60;90.10;;;;;;5032648;28;20017;-59
2022/01/14 12:09:19;;;;;;;34.92;27.33;;;10.50;90.40;;;;;;5028114;28;20052;-64
2022/01/14 12:11:45;;;;;;;37.83;27.63;;;10.60;90.40;;;;;;5031487;28;20120;-66
2022/01/14 12:14:12;;;;;;;36.15;27.42;;;10.60;90.30;;;;;;5033354;28;20017;-69
2022/01/14 12:16:50;;;;;;;36.70;27.10;;;10.70;90.20;;;;;;5033464;28;20029;-62
2022/01/14 12:19:17;;;;;;;39.60;26.95;;;10.70;90.10;;;;;;5034215;28;20030;-60
2022/01/14 12:21:49;;;;;;;33.45;24.23;;;10.60;90.30;;;;;;5034116;28;20025;-59
2022/01/14 12:24:17;;;;;;;29.10;22.45;;;10.60;90.40;;;;;;5035754;28;20032;-64
2022/01/14 12:27:03;;;;;;;33.53;23.92;;;10.60;90.40;;;;;;5035559;28;20032;-60
2022/01/14 12:29:41;;;;;;;33.40;24.45;;;10.50;90.40;;;;;;5033982;28;20410;-61
2022/01/14 12:32:09;;;;;;;25.95;17.67;;;10.60;90.60;;;;;;5034826;28;20033;-61
2022/01/14 12:34:56;;;;;;;22.63;16.25;;;10.80;90.70;;;;;;5033684;28;20112;-60
2022/01/14 12:37:37;;;;;;;28.98;20.42;;;11.00;90.80;;;;;;5034988;28;20087;-71
2022/01/14 12:40:37;;;;;;;33.72;23.67;;;11.10;90.60;;;;;;5035137;28;20055;-60
2022/01/14 12:43:11;;;;;;;28.95;21.52;;;11.20;90.50;;;;;;5027334;28;20099;-65
2022/01/14 12:45:52;;;;;;;28.85;21.52;;;11.20;90.50;;;;;;5034745;28;20029;-63
2022/01/14 12:48:39;;;;;;;37.30;26.30;;;11.30;90.30;;;;;;5015225;28;20026;-61
2022/01/14 12:51:10;;;;;;;38.10;26.33;;;11.20;90.30;;;;;;5020045;28;20021;-61
2022/01/14 12:53:36;;;;;;;33.90;23.17;;;11.20;90.30;;;;;;5033563;28;20035;-60
2022/01/14 12:56:15;;;;;;;40.35;27.75;;;11.40;90.20;;;;;;5021646;28;20034;-67
2022/01/14 12:58:52;;;;;;;33.30;24.10;;;11.40;90.20;;;;;;5028349;28;20078;-62
2022/01/14 13:01:18;;;;;;;38.67;25.05;;;11.40;90.10;;;;;;5034794;28;20033;-60